sensor_id;sensor_type;location;lat;lon;timestamp;temperature;humidity
4223;DHT22;2125;51.436;14.138;2022-08-20T00:00:14;21.10;86.40
4223;DHT22;2125;51.436;14.138;2022-08-20T00:02:44;21.10;86.30
4223;DHT22;2125;51.436;14.138;2022-08-20T00:05:13;21.10;86.30
4223;DHT22;2125;51.436;14.138;2022-08-20T00:07:40;21.10;86.30
4223;DHT22;2125;51.436;14.138;2022-08-20T00:10:08;21.10;86.20
4223;DHT22;2125;51.436;14.138;2022-08-20T00:12:35;21.10;86.10
4223;DHT22;2125;51.436;14.138;2022-08-20T00:15:03;21.20;86.10
4223;DHT22;2125;51.436;14.138;2022-08-20T00:17:30;21.20;86.10
4223;DHT22;2125;51.436;14.138;2022-08-20T00:19:59;21.10;86.10
4223;DHT22;2125;51.436;14.138;2022-08-20T00:22:27;21.10;86.10
4223;DHT22;2125;51.436;14.138;2022-08-20T00:24:53;21.00;86.10
4223;DHT22;2125;51.436;14.138;2022-08-20T00:27:20;21.00;86.20
4223;DHT22;2125;51.436;14.138;2022-08-20T00:29:46;21.00;86.30
4223;DHT22;2125;51.436;14.138;2022-08-20T00:32:13;21.00;86.30
4223;DHT22;2125;51.436;14.138;2022-08-20T00:34:40;20.90;86.30
4223;DHT22;2125;51.436;14.138;2022-08-20T00:37:07;21.00;86.30
4223;DHT22;2125;51.436;14.138;2022-08-20T00:39:35;21.00;86.20
4223;DHT22;2125;51.436;14.138;2022-08-20T00:42:02;21.00;86.20
4223;DHT22;2125;51.436;14.138;2022-08-20T00:44:29;20.90;86.20
4223;DHT22;2125;51.436;14.138;2022-08-20T00:46:56;21.00;86.20
4223;DHT22;2125;51.436;14.138;2022-08-20T00:49:25;21.00;86.10
4223;DHT22;2125;51.436;14.138;2022-08-20T00:51:56;21.00;86.20
4223;DHT22;2125;51.436;14.138;2022-08-20T00:54:27;21.00;86.20
4223;DHT22;2125;51.436;14.138;2022-08-20T00:56:59;21.00;86.20
4223;DHT22;2125;51.436;14.138;2022-08-20T00:59:30;20.90;86.20
4223;DHT22;2125;51.436;14.138;2022-08-20T01:01:59;20.90;86.20
4223;DHT22;2125;51.436;14.138;2022-08-20T01:04:27;20.90;86.20
4223;DHT22;2125;51.436;14.138;2022-08-20T01:06:56;20.90;86.20
4223;DHT22;2125;51.436;14.138;2022-08-20T01:09:23;20.90;86.20
4223;DHT22;2125;51.436;14.138;2022-08-20T01:11:50;20.90;86.20
4223;DHT22;2125;51.436;14.138;2022-08-20T01:14:18;20.90;86.20
4223;DHT22;2125;51.436;14.138;2022-08-20T01:16:55;20.90;86.10
4223;DHT22;2125;51.436;14.138;2022-08-20T01:19:27;20.90;86.10
4223;DHT22;2125;51.436;14.138;2022-08-20T01:21:55;20.90;86.10
4223;DHT22;2125;51.436;14.138;2022-08-20T01:24:26;20.90;86.10
4223;DHT22;2125;51.436;14.138;2022-08-20T01:26:56;20.70;86.10
4223;DHT22;2125;51.436;14.138;2022-08-20T01:29:24;20.70;86.10
4223;DHT22;2125;51.436;14.138;2022-08-20T01:31:54;20.70;86.20
4223;DHT22;2125;51.436;14.138;2022-08-20T01:34:25;20.70;86.20
4223;DHT22;2125;51.436;14.138;2022-08-20T01:36:54;20.70;86.20
4223;DHT22;2125;51.436;14.138;2022-08-20T01:39:25;20.80;86.20
4223;DHT22;2125;51.436;14.138;2022-08-20T01:42:01;20.80;86.20
4223;DHT22;2125;51.436;14.138;2022-08-20T01:44:29;20.80;86.20
4223;DHT22;2125;51.436;14.138;2022-08-20T01:46:56;20.80;86.20
4223;DHT22;2125;51.436;14.138;2022-08-20T01:49:27;20.80;86.10
4223;DHT22;2125;51.436;14.138;2022-08-20T01:51:58;20.80;86.10
4223;DHT22;2125;51.436;14.138;2022-08-20T01:54:26;20.80;86.10
4223;DHT22;2125;51.436;14.138;2022-08-20T01:56:56;20.70;86.10
4223;DHT22;2125;51.436;14.138;2022-08-20T01:59:25;20.70;86.10
4223;DHT22;2125;51.436;14.138;2022-08-20T02:01:53;20.60;86.10
4223;DHT22;2125;51.436;14.138;2022-08-20T02:04:20;20.60;86.10
4223;DHT22;2125;51.436;14.138;2022-08-20T02:06:49;20.60;86.10
4223;DHT22;2125;51.436;14.138;2022-08-20T02:09:17;20.50;86.10
4223;DHT22;2125;51.436;14.138;2022-08-20T02:11:44;20.50;86.20
4223;DHT22;2125;51.436;14.138;2022-08-20T02:14:12;20.60;86.10
4223;DHT22;2125;51.436;14.138;2022-08-20T02:16:43;20.60;86.10
4223;DHT22;2125;51.436;14.138;2022-08-20T02:19:14;20.60;86.10
4223;DHT22;2125;51.436;14.138;2022-08-20T02:21:44;20.70;86.10
4223;DHT22;2125;51.436;14.138;2022-08-20T02:24:12;20.70;86.10
4223;DHT22;2125;51.436;14.138;2022-08-20T02:26:39;20.60;86.10
4223;DHT22;2125;51.436;14.138;2022-08-20T02:29:09;20.60;86.10
4223;DHT22;2125;51.436;14.138;2022-08-20T02:31:37;20.60;86.10
4223;DHT22;2125;51.436;14.138;2022-08-20T02:34:07;20.70;86.10
4223;DHT22;2125;51.436;14.138;2022-08-20T02:36:35;20.70;86.10
4223;DHT22;2125;51.436;14.138;2022-08-20T02:39:04;20.60;86.10
4223;DHT22;2125;51.436;14.138;2022-08-20T02:41:31;20.50;86.10
4223;DHT22;2125;51.436;14.138;2022-08-20T02:43:58;20.50;86.10
4223;DHT22;2125;51.436;14.138;2022-08-20T02:46:24;20.60;86.10
4223;DHT22;2125;51.436;14.138;2022-08-20T02:48:52;20.50;86.10
4223;DHT22;2125;51.436;14.138;2022-08-20T02:51:20;20.40;86.10
4223;DHT22;2125;51.436;14.138;2022-08-20T02:53:47;20.40;86.10
4223;DHT22;2125;51.436;14.138;2022-08-20T02:56:13;20.40;86.10
4223;DHT22;2125;51.436;14.138;2022-08-20T02:58:40;20.40;86.10
4223;DHT22;2125;51.436;14.138;2022-08-20T03:01:10;20.30;86.30
4223;DHT22;2125;51.436;14.138;2022-08-20T03:03:37;20.30;86.30
4223;DHT22;2125;51.436;14.138;2022-08-20T03:06:05;20.30;86.30
4223;DHT22;2125;51.436;14.138;2022-08-20T03:08:34;20.20;86.30
4223;DHT22;2125;51.436;14.138;2022-08-20T03:11:01;20.30;86.30
4223;DHT22;2125;51.436;14.138;2022-08-20T03:13:28;20.30;86.30
4223;DHT22;2125;51.436;14.138;2022-08-20T03:15:57;20.30;86.30
4223;DHT22;2125;51.436;14.138;2022-08-20T03:18:26;20.20;86.20
4223;DHT22;2125;51.436;14.138;2022-08-20T03:20:53;20.20;86.20
4223;DHT22;2125;51.436;14.138;2022-08-20T03:23:20;20.20;86.20
4223;DHT22;2125;51.436;14.138;2022-08-20T03:25:48;20.20;86.20
4223;DHT22;2125;51.436;14.138;2022-08-20T03:28:15;20.20;86.20
4223;DHT22;2125;51.436;14.138;2022-08-20T03:30:43;20.20;86.20
4223;DHT22;2125;51.436;14.138;2022-08-20T03:33:10;20.20;86.20
4223;DHT22;2125;51.436;14.138;2022-08-20T03:35:37;20.30;86.20
4223;DHT22;2125;51.436;14.138;2022-08-20T03:38:06;20.30;86.10
4223;DHT22;2125;51.436;14.138;2022-08-20T03:40:33;20.30;86.10
4223;DHT22;2125;51.436;14.138;2022-08-20T03:43:02;20.30;86.10
4223;DHT22;2125;51.436;14.138;2022-08-20T03:45:29;20.20;86.10
4223;DHT22;2125;51.436;14.138;2022-08-20T03:47:57;20.20;86.10
4223;DHT22;2125;51.436;14.138;2022-08-20T03:50:28;20.20;86.20
4223;DHT22;2125;51.436;14.138;2022-08-20T03:52:55;20.20;86.20
4223;DHT22;2125;51.436;14.138;2022-08-20T03:55:23;20.30;86.20
4223;DHT22;2125;51.436;14.138;2022-08-20T03:57:52;20.30;86.20
4223;DHT22;2125;51.436;14.138;2022-08-20T04:00:22;20.20;86.10
4223;DHT22;2125;51.436;14.138;2022-08-20T04:02:50;20.20;86.20
4223;DHT22;2125;51.436;14.138;2022-08-20T04:05:16;20.20;86.20
4223;DHT22;2125;51.436;14.138;2022-08-20T04:07:43;20.30;86.10
4223;DHT22;2125;51.436;14.138;2022-08-20T04:10:11;20.30;86.10
4223;DHT22;2125;51.436;14.138;2022-08-20T04:12:38;20.30;86.00
4223;DHT22;2125;51.436;14.138;2022-08-20T04:15:07;20.20;86.20
4223;DHT22;2125;51.436;14.138;2022-08-20T04:17:36;20.20;86.10
4223;DHT22;2125;51.436;14.138;2022-08-20T04:20:04;20.20;86.10
4223;DHT22;2125;51.436;14.138;2022-08-20T04:22:30;20.10;86.10
4223;DHT22;2125;51.436;14.138;2022-08-20T04:24:57;20.10;86.20
4223;DHT22;2125;51.436;14.138;2022-08-20T04:27:24;20.10;86.10
4223;DHT22;2125;51.436;14.138;2022-08-20T04:29:50;20.10;86.20
4223;DHT22;2125;51.436;14.138;2022-08-20T04:32:17;20.10;86.20
4223;DHT22;2125;51.436;14.138;2022-08-20T04:34:46;20.10;86.20
4223;DHT22;2125;51.436;14.138;2022-08-20T04:37:19;20.00;86.20
4223;DHT22;2125;51.436;14.138;2022-08-20T04:39:46;20.10;86.20
4223;DHT22;2125;51.436;14.138;2022-08-20T04:42:35;20.10;86.20
4223;DHT22;2125;51.436;14.138;2022-08-20T04:45:00;20.10;86.20
4223;DHT22;2125;51.436;14.138;2022-08-20T04:47:27;20.10;86.20
4223;DHT22;2125;51.436;14.138;2022-08-20T04:49:55;20.10;86.20
4223;DHT22;2125;51.436;14.138;2022-08-20T04:52:24;20.10;86.20
4223;DHT22;2125;51.436;14.138;2022-08-20T04:54:51;20.10;86.20
4223;DHT22;2125;51.436;14.138;2022-08-20T04:57:20;20.10;86.20
4223;DHT22;2125;51.436;14.138;2022-08-20T04:59:48;20.10;86.20
4223;DHT22;2125;51.436;14.138;2022-08-20T05:02:15;20.10;86.20
4223;DHT22;2125;51.436;14.138;2022-08-20T05:04:42;20.00;86.10
4223;DHT22;2125;51.436;14.138;2022-08-20T05:07:11;20.00;86.20
4223;DHT22;2125;51.436;14.138;2022-08-20T05:09:38;19.90;86.20
4223;DHT22;2125;51.436;14.138;2022-08-20T05:12:05;19.90;86.20
4223;DHT22;2125;51.436;14.138;2022-08-20T05:14:31;19.90;86.20
4223;DHT22;2125;51.436;14.138;2022-08-20T05:17:01;19.90;86.20
4223;DHT22;2125;51.436;14.138;2022-08-20T05:19:29;20.00;86.20
4223;DHT22;2125;51.436;14.138;2022-08-20T05:21:56;20.00;86.20
4223;DHT22;2125;51.436;14.138;2022-08-20T05:24:24;20.00;86.20
4223;DHT22;2125;51.436;14.138;2022-08-20T05:26:51;20.00;86.20
4223;DHT22;2125;51.436;14.138;2022-08-20T05:29:20;20.00;86.20
4223;DHT22;2125;51.436;14.138;2022-08-20T05:31:47;20.10;86.20
4223;DHT22;2125;51.436;14.138;2022-08-20T05:34:14;20.10;86.10
4223;DHT22;2125;51.436;14.138;2022-08-20T05:36:43;20.10;86.10
4223;DHT22;2125;51.436;14.138;2022-08-20T05:39:10;20.10;86.10
4223;DHT22;2125;51.436;14.138;2022-08-20T05:41:39;20.00;86.10
4223;DHT22;2125;51.436;14.138;2022-08-20T05:44:07;20.00;86.10
4223;DHT22;2125;51.436;14.138;2022-08-20T05:46:38;19.90;86.10
4223;DHT22;2125;51.436;14.138;2022-08-20T05:49:05;19.90;86.10
4223;DHT22;2125;51.436;14.138;2022-08-20T05:51:32;19.90;86.10
4223;DHT22;2125;51.436;14.138;2022-08-20T05:54:01;19.90;86.00
4223;DHT22;2125;51.436;14.138;2022-08-20T05:56:28;19.90;85.70
4223;DHT22;2125;51.436;14.138;2022-08-20T05:58:57;19.80;86.10
4223;DHT22;2125;51.436;14.138;2022-08-20T06:01:26;19.80;86.00
4223;DHT22;2125;51.436;14.138;2022-08-20T06:03:52;19.80;86.00
4223;DHT22;2125;51.436;14.138;2022-08-20T06:06:36;19.80;85.90
4223;DHT22;2125;51.436;14.138;2022-08-20T06:09:04;19.80;86.00
4223;DHT22;2125;51.436;14.138;2022-08-20T06:11:31;19.80;85.90
4223;DHT22;2125;51.436;14.138;2022-08-20T06:13:59;19.80;85.80
4223;DHT22;2125;51.436;14.138;2022-08-20T06:16:26;19.70;85.80
4223;DHT22;2125;51.436;14.138;2022-08-20T06:18:53;19.70;85.80
4223;DHT22;2125;51.436;14.138;2022-08-20T06:21:20;19.70;85.70
4223;DHT22;2125;51.436;14.138;2022-08-20T06:23:46;19.70;85.30
4223;DHT22;2125;51.436;14.138;2022-08-20T06:26:13;19.70;85.40
4223;DHT22;2125;51.436;14.138;2022-08-20T06:28:40;19.60;85.20
4223;DHT22;2125;51.436;14.138;2022-08-20T06:31:08;19.60;85.20
4223;DHT22;2125;51.436;14.138;2022-08-20T06:33:35;19.60;85.20
4223;DHT22;2125;51.436;14.138;2022-08-20T06:36:03;19.60;85.10
4223;DHT22;2125;51.436;14.138;2022-08-20T06:38:29;19.60;85.10
4223;DHT22;2125;51.436;14.138;2022-08-20T06:40:57;19.50;85.10
4223;DHT22;2125;51.436;14.138;2022-08-20T06:43:24;19.50;85.00
4223;DHT22;2125;51.436;14.138;2022-08-20T06:45:51;19.60;85.00
4223;DHT22;2125;51.436;14.138;2022-08-20T06:48:23;19.70;84.80
4223;DHT22;2125;51.436;14.138;2022-08-20T06:50:50;19.70;84.70
4223;DHT22;2125;51.436;14.138;2022-08-20T06:53:19;19.70;84.80
4223;DHT22;2125;51.436;14.138;2022-08-20T06:55:49;19.80;84.70
4223;DHT22;2125;51.436;14.138;2022-08-20T06:58:17;19.80;84.60
4223;DHT22;2125;51.436;14.138;2022-08-20T07:00:44;19.90;84.50
4223;DHT22;2125;51.436;14.138;2022-08-20T07:03:12;19.90;84.50
4223;DHT22;2125;51.436;14.138;2022-08-20T07:05:43;19.90;84.50
4223;DHT22;2125;51.436;14.138;2022-08-20T07:08:11;19.90;84.50
4223;DHT22;2125;51.436;14.138;2022-08-20T07:10:38;19.90;84.50
4223;DHT22;2125;51.436;14.138;2022-08-20T07:13:05;19.90;84.50
4223;DHT22;2125;51.436;14.138;2022-08-20T07:15:31;19.90;84.40
4223;DHT22;2125;51.436;14.138;2022-08-20T07:18:00;19.90;84.40
4223;DHT22;2125;51.436;14.138;2022-08-20T07:20:28;19.90;84.40
4223;DHT22;2125;51.436;14.138;2022-08-20T07:22:57;20.00;84.40
4223;DHT22;2125;51.436;14.138;2022-08-20T07:25:25;19.90;84.40
4223;DHT22;2125;51.436;14.138;2022-08-20T07:27:51;19.90;84.30
4223;DHT22;2125;51.436;14.138;2022-08-20T07:30:20;19.90;84.30
4223;DHT22;2125;51.436;14.138;2022-08-20T07:33:05;19.90;84.30
4223;DHT22;2125;51.436;14.138;2022-08-20T07:35:32;20.00;84.20
4223;DHT22;2125;51.436;14.138;2022-08-20T07:37:59;19.90;84.20
4223;DHT22;2125;51.436;14.138;2022-08-20T07:40:29;20.00;84.20
4223;DHT22;2125;51.436;14.138;2022-08-20T07:42:57;20.00;84.10
4223;DHT22;2125;51.436;14.138;2022-08-20T07:45:25;19.90;84.20
4223;DHT22;2125;51.436;14.138;2022-08-20T07:47:52;19.90;84.20
4223;DHT22;2125;51.436;14.138;2022-08-20T07:50:23;19.80;84.20
4223;DHT22;2125;51.436;14.138;2022-08-20T07:52:50;19.80;84.30
4223;DHT22;2125;51.436;14.138;2022-08-20T07:55:19;19.80;84.30
4223;DHT22;2125;51.436;14.138;2022-08-20T07:57:47;19.80;84.30
4223;DHT22;2125;51.436;14.138;2022-08-20T08:00:16;19.80;84.30
4223;DHT22;2125;51.436;14.138;2022-08-20T08:02:42;19.70;84.30
4223;DHT22;2125;51.436;14.138;2022-08-20T08:05:09;19.80;84.30
4223;DHT22;2125;51.436;14.138;2022-08-20T08:07:37;19.70;84.30
4223;DHT22;2125;51.436;14.138;2022-08-20T08:10:06;19.70;84.30
4223;DHT22;2125;51.436;14.138;2022-08-20T08:12:37;19.70;84.20
4223;DHT22;2125;51.436;14.138;2022-08-20T08:15:09;19.70;84.30
4223;DHT22;2125;51.436;14.138;2022-08-20T08:17:36;19.80;84.30
4223;DHT22;2125;51.436;14.138;2022-08-20T08:20:04;19.80;84.20
4223;DHT22;2125;51.436;14.138;2022-08-20T08:22:31;19.80;84.20
4223;DHT22;2125;51.436;14.138;2022-08-20T08:24:58;19.80;84.20
4223;DHT22;2125;51.436;14.138;2022-08-20T08:27:26;19.80;84.20
4223;DHT22;2125;51.436;14.138;2022-08-20T08:29:58;19.80;84.10
4223;DHT22;2125;51.436;14.138;2022-08-20T08:32:25;19.90;84.10
4223;DHT22;2125;51.436;14.138;2022-08-20T08:34:52;19.90;84.10
4223;DHT22;2125;51.436;14.138;2022-08-20T08:37:18;19.90;84.10
4223;DHT22;2125;51.436;14.138;2022-08-20T08:39:45;20.00;84.10
4223;DHT22;2125;51.436;14.138;2022-08-20T08:42:22;20.00;84.10
4223;DHT22;2125;51.436;14.138;2022-08-20T08:44:51;20.10;84.10
4223;DHT22;2125;51.436;14.138;2022-08-20T08:47:25;20.10;84.10
4223;DHT22;2125;51.436;14.138;2022-08-20T08:49:54;20.10;84.10
4223;DHT22;2125;51.436;14.138;2022-08-20T08:52:24;20.10;84.00
4223;DHT22;2125;51.436;14.138;2022-08-20T08:54:54;20.10;84.00
4223;DHT22;2125;51.436;14.138;2022-08-20T08:57:21;20.00;84.00
4223;DHT22;2125;51.436;14.138;2022-08-20T08:59:54;20.10;84.00
4223;DHT22;2125;51.436;14.138;2022-08-20T09:02:25;20.10;84.00
4223;DHT22;2125;51.436;14.138;2022-08-20T09:04:53;20.10;83.90
4223;DHT22;2125;51.436;14.138;2022-08-20T09:07:25;20.10;84.00
4223;DHT22;2125;51.436;14.138;2022-08-20T09:09:53;20.10;84.00
4223;DHT22;2125;51.436;14.138;2022-08-20T09:12:22;20.10;84.00
4223;DHT22;2125;51.436;14.138;2022-08-20T09:14:52;20.10;83.90
4223;DHT22;2125;51.436;14.138;2022-08-20T09:17:22;20.20;83.90
4223;DHT22;2125;51.436;14.138;2022-08-20T09:19:48;20.20;83.90
4223;DHT22;2125;51.436;14.138;2022-08-20T09:22:19;20.10;83.90
4223;DHT22;2125;51.436;14.138;2022-08-20T09:24:45;20.20;83.90
4223;DHT22;2125;51.436;14.138;2022-08-20T09:27:12;20.10;83.80
4223;DHT22;2125;51.436;14.138;2022-08-20T09:29:39;20.10;83.80
4223;DHT22;2125;51.436;14.138;2022-08-20T09:32:08;20.00;83.80
4223;DHT22;2125;51.436;14.138;2022-08-20T09:34:37;19.90;83.80
4223;DHT22;2125;51.436;14.138;2022-08-20T09:37:04;20.00;83.80
4223;DHT22;2125;51.436;14.138;2022-08-20T09:39:31;20.00;83.80
4223;DHT22;2125;51.436;14.138;2022-08-20T09:42:06;20.00;83.80
4223;DHT22;2125;51.436;14.138;2022-08-20T09:44:33;20.10;83.70
4223;DHT22;2125;51.436;14.138;2022-08-20T09:47:00;20.00;83.40
4223;DHT22;2125;51.436;14.138;2022-08-20T09:49:27;20.00;83.60
4223;DHT22;2125;51.436;14.138;2022-08-20T09:51:55;20.00;83.60
4223;DHT22;2125;51.436;14.138;2022-08-20T09:54:22;20.00;83.70
4223;DHT22;2125;51.436;14.138;2022-08-20T09:56:52;19.90;83.60
4223;DHT22;2125;51.436;14.138;2022-08-20T09:59:19;19.90;83.40
4223;DHT22;2125;51.436;14.138;2022-08-20T10:01:45;19.80;82.60
4223;DHT22;2125;51.436;14.138;2022-08-20T10:04:12;19.90;82.50
4223;DHT22;2125;51.436;14.138;2022-08-20T10:06:40;19.90;82.30
4223;DHT22;2125;51.436;14.138;2022-08-20T10:09:08;19.90;82.40
4223;DHT22;2125;51.436;14.138;2022-08-20T10:11:34;20.00;82.50
4223;DHT22;2125;51.436;14.138;2022-08-20T10:14:01;20.10;82.50
4223;DHT22;2125;51.436;14.138;2022-08-20T10:16:28;20.10;82.60
4223;DHT22;2125;51.436;14.138;2022-08-20T10:18:55;20.10;82.70
4223;DHT22;2125;51.436;14.138;2022-08-20T10:21:22;20.10;82.70
4223;DHT22;2125;51.436;14.138;2022-08-20T10:23:48;20.10;82.80
4223;DHT22;2125;51.436;14.138;2022-08-20T10:26:16;20.20;82.80
4223;DHT22;2125;51.436;14.138;2022-08-20T10:28:43;20.20;82.80
4223;DHT22;2125;51.436;14.138;2022-08-20T10:31:11;20.30;82.70
4223;DHT22;2125;51.436;14.138;2022-08-20T10:33:39;20.40;82.70
4223;DHT22;2125;51.436;14.138;2022-08-20T10:36:06;20.40;82.70
4223;DHT22;2125;51.436;14.138;2022-08-20T10:38:33;20.50;82.80
4223;DHT22;2125;51.436;14.138;2022-08-20T10:40:59;20.50;82.80
4223;DHT22;2125;51.436;14.138;2022-08-20T10:43:27;20.60;82.80
4223;DHT22;2125;51.436;14.138;2022-08-20T10:45:54;20.70;82.80
4223;DHT22;2125;51.436;14.138;2022-08-20T10:48:21;20.70;82.80
4223;DHT22;2125;51.436;14.138;2022-08-20T10:50:48;20.80;82.90
4223;DHT22;2125;51.436;14.138;2022-08-20T10:53:17;20.80;82.90
4223;DHT22;2125;51.436;14.138;2022-08-20T10:55:44;20.80;83.00
4223;DHT22;2125;51.436;14.138;2022-08-20T10:58:11;20.90;83.00
4223;DHT22;2125;51.436;14.138;2022-08-20T11:00:39;20.90;83.10
4223;DHT22;2125;51.436;14.138;2022-08-20T11:03:06;20.80;83.20
4223;DHT22;2125;51.436;14.138;2022-08-20T11:05:33;20.90;83.20
4223;DHT22;2125;51.436;14.138;2022-08-20T11:08:01;20.90;83.40
4223;DHT22;2125;51.436;14.138;2022-08-20T11:10:30;20.90;83.30
4223;DHT22;2125;51.436;14.138;2022-08-20T11:13:01;20.90;83.80
4223;DHT22;2125;51.436;14.138;2022-08-20T11:15:28;21.00;83.70
4223;DHT22;2125;51.436;14.138;2022-08-20T11:17:57;21.10;83.70
4223;DHT22;2125;51.436;14.138;2022-08-20T11:20:24;21.10;84.20
4223;DHT22;2125;51.436;14.138;2022-08-20T11:22:51;21.10;84.30
4223;DHT22;2125;51.436;14.138;2022-08-20T11:25:19;21.10;84.30
4223;DHT22;2125;51.436;14.138;2022-08-20T11:27:47;21.10;84.40
4223;DHT22;2125;51.436;14.138;2022-08-20T11:30:16;21.10;84.40
4223;DHT22;2125;51.436;14.138;2022-08-20T11:32:43;21.10;84.50
4223;DHT22;2125;51.436;14.138;2022-08-20T11:35:11;21.00;84.40
4223;DHT22;2125;51.436;14.138;2022-08-20T11:37:39;20.90;84.60
4223;DHT22;2125;51.436;14.138;2022-08-20T11:40:06;20.90;84.60
4223;DHT22;2125;51.436;14.138;2022-08-20T11:42:33;20.90;84.60
4223;DHT22;2125;51.436;14.138;2022-08-20T11:45:00;20.90;84.60
4223;DHT22;2125;51.436;14.138;2022-08-20T11:47:28;21.00;84.60
4223;DHT22;2125;51.436;14.138;2022-08-20T11:49:57;20.90;84.60
4223;DHT22;2125;51.436;14.138;2022-08-20T11:52:26;20.90;84.60
4223;DHT22;2125;51.436;14.138;2022-08-20T11:54:52;20.80;84.60
4223;DHT22;2125;51.436;14.138;2022-08-20T11:57:20;20.80;84.60
4223;DHT22;2125;51.436;14.138;2022-08-20T11:59:48;20.80;84.70
4223;DHT22;2125;51.436;14.138;2022-08-20T12:02:15;20.70;84.60
4223;DHT22;2125;51.436;14.138;2022-08-20T12:04:42;20.70;84.60
4223;DHT22;2125;51.436;14.138;2022-08-20T12:07:09;20.70;84.60
4223;DHT22;2125;51.436;14.138;2022-08-20T12:09:37;20.70;84.60
4223;DHT22;2125;51.436;14.138;2022-08-20T12:12:05;20.70;84.60
4223;DHT22;2125;51.436;14.138;2022-08-20T12:14:32;20.70;84.60
4223;DHT22;2125;51.436;14.138;2022-08-20T12:17:07;20.70;84.60
4223;DHT22;2125;51.436;14.138;2022-08-20T12:19:38;20.70;84.70
4223;DHT22;2125;51.436;14.138;2022-08-20T12:22:05;20.70;84.60
4223;DHT22;2125;51.436;14.138;2022-08-20T12:24:32;20.70;84.60
4223;DHT22;2125;51.436;14.138;2022-08-20T12:27:09;20.70;84.60
4223;DHT22;2125;51.436;14.138;2022-08-20T12:29:36;20.60;84.60
4223;DHT22;2125;51.436;14.138;2022-08-20T12:32:03;20.60;84.50
4223;DHT22;2125;51.436;14.138;2022-08-20T12:34:31;20.60;84.60
4223;DHT22;2125;51.436;14.138;2022-08-20T12:37:01;20.60;84.50
4223;DHT22;2125;51.436;14.138;2022-08-20T12:39:29;20.60;84.50
4223;DHT22;2125;51.436;14.138;2022-08-20T12:41:58;20.50;84.50
4223;DHT22;2125;51.436;14.138;2022-08-20T12:44:26;20.50;84.10
4223;DHT22;2125;51.436;14.138;2022-08-20T12:47:04;20.50;84.00
4223;DHT22;2125;51.436;14.138;2022-08-20T12:49:31;20.40;83.90
4223;DHT22;2125;51.436;14.138;2022-08-20T12:51:58;20.40;83.50
4223;DHT22;2125;51.436;14.138;2022-08-20T12:54:25;20.30;83.50
4223;DHT22;2125;51.436;14.138;2022-08-20T12:56:51;20.20;83.60
4223;DHT22;2125;51.436;14.138;2022-08-20T12:59:21;20.20;83.60
4223;DHT22;2125;51.436;14.138;2022-08-20T13:01:49;20.20;83.50
4223;DHT22;2125;51.436;14.138;2022-08-20T13:04:16;20.10;83.50
4223;DHT22;2125;51.436;14.138;2022-08-20T13:06:43;20.00;83.50
4223;DHT22;2125;51.436;14.138;2022-08-20T13:09:10;19.90;83.60
4223;DHT22;2125;51.436;14.138;2022-08-20T13:11:41;19.90;83.50
4223;DHT22;2125;51.436;14.138;2022-08-20T13:14:08;19.90;83.50
4223;DHT22;2125;51.436;14.138;2022-08-20T13:16:34;19.90;83.50
4223;DHT22;2125;51.436;14.138;2022-08-20T13:19:02;19.90;83.50
4223;DHT22;2125;51.436;14.138;2022-08-20T13:21:29;19.90;83.50
4223;DHT22;2125;51.436;14.138;2022-08-20T13:23:55;19.90;83.50
4223;DHT22;2125;51.436;14.138;2022-08-20T13:26:22;19.90;83.40
4223;DHT22;2125;51.436;14.138;2022-08-20T13:28:49;19.90;83.60
4223;DHT22;2125;51.436;14.138;2022-08-20T13:31:15;19.80;83.60
4223;DHT22;2125;51.436;14.138;2022-08-20T13:33:42;19.80;83.50
4223;DHT22;2125;51.436;14.138;2022-08-20T13:36:10;19.90;83.50
4223;DHT22;2125;51.436;14.138;2022-08-20T13:38:37;19.90;83.60
4223;DHT22;2125;51.436;14.138;2022-08-20T13:41:04;19.90;83.50
4223;DHT22;2125;51.436;14.138;2022-08-20T13:43:31;19.90;83.60
4223;DHT22;2125;51.436;14.138;2022-08-20T13:45:57;19.90;83.70
4223;DHT22;2125;51.436;14.138;2022-08-20T13:48:24;19.90;83.70
4223;DHT22;2125;51.436;14.138;2022-08-20T13:50:50;19.90;83.70
4223;DHT22;2125;51.436;14.138;2022-08-20T13:53:18;19.90;83.60
4223;DHT22;2125;51.436;14.138;2022-08-20T13:55:45;19.90;83.70
4223;DHT22;2125;51.436;14.138;2022-08-20T13:58:12;20.00;83.60
4223;DHT22;2125;51.436;14.138;2022-08-20T14:00:38;19.90;83.70
4223;DHT22;2125;51.436;14.138;2022-08-20T14:03:05;20.00;83.70
4223;DHT22;2125;51.436;14.138;2022-08-20T14:05:33;20.00;83.70
4223;DHT22;2125;51.436;14.138;2022-08-20T14:08:04;20.00;83.80
4223;DHT22;2125;51.436;14.138;2022-08-20T14:10:33;20.00;83.80
4223;DHT22;2125;51.436;14.138;2022-08-20T14:13:00;19.90;84.30
4223;DHT22;2125;51.436;14.138;2022-08-20T14:15:28;19.90;84.70
4223;DHT22;2125;51.436;14.138;2022-08-20T14:17:56;19.90;84.70
4223;DHT22;2125;51.436;14.138;2022-08-20T14:20:24;19.90;84.70
4223;DHT22;2125;51.436;14.138;2022-08-20T14:22:51;20.00;84.80
4223;DHT22;2125;51.436;14.138;2022-08-20T14:25:20;20.10;84.80
4223;DHT22;2125;51.436;14.138;2022-08-20T14:27:48;20.10;84.80
4223;DHT22;2125;51.436;14.138;2022-08-20T14:30:18;20.10;84.90
4223;DHT22;2125;51.436;14.138;2022-08-20T14:32:45;20.10;84.90
4223;DHT22;2125;51.436;14.138;2022-08-20T14:35:12;20.20;84.90
4223;DHT22;2125;51.436;14.138;2022-08-20T14:37:41;20.30;85.00
4223;DHT22;2125;51.436;14.138;2022-08-20T14:40:10;20.30;84.90
4223;DHT22;2125;51.436;14.138;2022-08-20T14:42:38;20.50;85.00
4223;DHT22;2125;51.436;14.138;2022-08-20T14:45:09;20.60;84.90
4223;DHT22;2125;51.436;14.138;2022-08-20T14:47:38;20.80;84.90
4223;DHT22;2125;51.436;14.138;2022-08-20T14:50:08;20.80;84.60
4223;DHT22;2125;51.436;14.138;2022-08-20T14:52:35;20.80;84.60
4223;DHT22;2125;51.436;14.138;2022-08-20T14:55:03;20.90;84.80
4223;DHT22;2125;51.436;14.138;2022-08-20T14:57:30;20.80;84.70
4223;DHT22;2125;51.436;14.138;2022-08-20T14:59:57;20.80;84.40
4223;DHT22;2125;51.436;14.138;2022-08-20T15:02:25;20.80;84.70
4223;DHT22;2125;51.436;14.138;2022-08-20T15:04:52;20.70;84.30
4223;DHT22;2125;51.436;14.138;2022-08-20T15:07:22;20.80;84.60
4223;DHT22;2125;51.436;14.138;2022-08-20T15:09:49;20.80;84.20
4223;DHT22;2125;51.436;14.138;2022-08-20T15:12:16;20.70;84.50
4223;DHT22;2125;51.436;14.138;2022-08-20T15:14:43;20.60;84.30
4223;DHT22;2125;51.436;14.138;2022-08-20T15:17:10;20.60;84.50
4223;DHT22;2125;51.436;14.138;2022-08-20T15:19:38;20.70;84.70
4223;DHT22;2125;51.436;14.138;2022-08-20T15:22:04;20.70;84.70
4223;DHT22;2125;51.436;14.138;2022-08-20T15:24:31;20.60;84.10
4223;DHT22;2125;51.436;14.138;2022-08-20T15:26:58;20.60;84.20
4223;DHT22;2125;51.436;14.138;2022-08-20T15:29:24;20.70;84.60
4223;DHT22;2125;51.436;14.138;2022-08-20T15:31:51;20.60;84.00
4223;DHT22;2125;51.436;14.138;2022-08-20T15:34:17;20.50;84.60
4223;DHT22;2125;51.436;14.138;2022-08-20T15:36:45;20.50;84.40
4223;DHT22;2125;51.436;14.138;2022-08-20T15:39:12;20.50;84.30
4223;DHT22;2125;51.436;14.138;2022-08-20T15:41:39;20.50;84.20
4223;DHT22;2125;51.436;14.138;2022-08-20T15:44:06;20.60;84.50
4223;DHT22;2125;51.436;14.138;2022-08-20T15:46:32;20.60;84.10
4223;DHT22;2125;51.436;14.138;2022-08-20T15:48:59;20.60;84.30